Casper, WY (82601)

8:30 AM MST on February 14, 2016 (GMT -0700)
Casper Mountain Foothills | | Change Station
CLOSE
Current Station
Personal Weather Station
Location: Casper, WY
Elevation: 5334 ft
Nearby Weather Stations
Active Advisory: Special Statement

Elev 5334 ft 42.83 °N, 106.31 °W | Updated 54 seconds ago

Overcast
Overcast
38.8 °F
Feels Like 31 °F
N
12.0
Wind Variable Wind from WSW
Gusts 12.0 mph

Today
High -- | Low -- °F
--% Chance of Precip.
Yesterday
High -- | Low -- °F
Precip. -- in
Pressure 29.91 in
Visibility 10.0 miles
Clouds Few 9500 ft
Windchill 31 °F
Dew Point 16 °F
Humidity 39%
Rainfall 0.00 in
Snow Depth Not available.
7:04 AM 5:35 PM
Waxing Crescent, 42% visible
METAR KCPR 141453Z 23015G25KT 10SM FEW095 00/M08 A2986 RMK AO2 SLP128 T00001078 58007
Pressure 29.91 in
Visibility 10.0 miles
Clouds Few 9500 ft
Windchill 31 °F
Dew Point 16 °F
Humidity 39%
Rainfall 0.00 in
Snow Depth Not available.
7:04 AM 5:35 PM
Waxing Crescent, 42% visible
METAR KCPR 141453Z 23015G25KT 10SM FEW095 00/M08 A2986 RMK AO2 SLP128 T00001078 58007

10-Day Weather Forecast

Almanac

Astronomy

Feb. 14, 2016 Rise Set
Actual Time
Civil Twilight
Nautical Twilight
Astronomical Twilight
Moon
Length of Visible Light
Length of Day
Tomorrow will be .
, % of the Moon is Illuminated

Today's Extremes

State Highs State Lows

Community

WunderPhotos

Upload Photos

1,892,791 photos uploaded!

WunderBlog® & News

Nearby

Air Quality

  Air Quality AQ Index Pollutant
Not available.

Snow Depth

Station Depth Elevation

Earthquake Activity

City Distance Mag. Time & Date
Minimum magnitude displayed is 2.5.

Coastal Water Temperatures

Place Temperature

Stations

Nearby Weather Stations

Station Location Temp. Windchill Dew Point Humidity Wind Precip. Elev Updated Type
                   

Watches & Warnings

Special Statement
Issued: 6:23 AM MST Feb. 14, 2016 – National Weather Service

Strong west to southwest winds between 25 and 35 mph will occur
between Rock Springs and Casper today. Occasional gusts between 40
and 50 mph will occur in localized windier areas. Lightweight or
high profile vehicles should be especially cautious if traveling
through these areas today... especially on north to south orientated
roads.


21


623 am MST sun Feb 14 2016

Strong west to southwest winds between 25 and 35 mph will occur
between Rock Springs and Casper today. Occasional gusts between 40
and 50 mph will occur in localized windier areas. Lightweight or
high profile vehicles should be especially cautious if traveling
through these areas today... especially on north to south orientated
roads.


21